Barhom II — 5IM534 — position and weather

sailwx.info

Track history (hours):
 
Tides and Currents Weather Stations Pressure Air Temp Water Temp Dewpoint Dewpoint Depression Visibility Wind Speed Wind Dir Waves Ship Positions

Barhom II

Last reported at 2015-Jul-04 06:25 UTC. Time now 2015-Jul-07 13:16 UTC.
Position N 37°33' W 001°07'.

Length 83 m; draft 4.3 m.

Type: Cargo ship. MMSI: 677043400.

Date/timePositionNaut miles runAvg speedWind from/ knotsBaromVisibWave heightAir tempDewpointWater temp
2015-Jul-04 06:25N 37°33' W 001°07'0 0.0
2015-Jul-04 04:27N 37°33' W 001°07'5 0.8
2015-Jul-03 21:24N 37°31' W 001°01'911.0
2015-Jul-03 20:33N 37°29' W 000°49'1010.0
2015-Jul-03 19:32N 37°29' W 000°36'1210.9
2015-Jul-03 18:28N 37°29' W 000°22'1010.8
2015-Jul-03 17:33N 37°29' W 000°09'1110.9
2015-Jul-03 16:33N 37°29' E 000°04'1110.7
2015-Jul-03 15:33N 37°29' E 000°18'1010.5
2015-Jul-03 14:33N 37°30' E 000°31'1010.4
2015-Jul-03 13:34N 37°31' E 000°44'1210.2
2015-Jul-03 12:25N 37°31' E 000°59'1010.5
2015-Jul-03 11:28N 37°31' E 001°11'1010.3
2015-Jul-03 10:26N 37°31' E 001°25'7110.2
2015-Jul-03 03:32N 37°33' E 002°54'40 9.9
2015-Jul-02 23:33N 37°33' E 003°44'12 9.5
2015-Jul-02 22:20N 37°33' E 003°58'7 9.6
2015-Jul-02 21:33N 37°32' E 004°07'10 9.6
2015-Jul-02 20:33N 37°32' E 004°19'2410.1
2015-Jul-02 18:10N 37°33' E 004°50'2010.1
2015-Jul-02 16:11N 37°34' E 005°15'710.3
2015-Jul-02 15:29N 37°34' E 005°24'1010.5
2015-Jul-02 14:33N 37°34' E 005°37'1210.8
2015-Jul-02 13:29N 37°34' E 005°51'1111.0
2015-Jul-02 12:32N 37°34' E 006°04'1111.1
2015-Jul-02 11:31N 37°34' E 006°19'5310.6
2015-Jul-02 06:33N 37°39' E 007°25'3410.3
2015-Jul-02 03:16N 37°38' E 008°07'810.3
2015-Jul-02 02:32N 37°39' E 008°17'1110.4
2015-Jul-02 01:29N 37°39' E 008°31'1010.1
2015-Jul-02 00:31N 37°39' E 008°43'10 9.8
2015-Jul-01 23:33N 37°39' E 008°55'10 9.8
2015-Jul-01 22:33N 37°39' E 009°07'10 9.9
2015-Jul-01 21:33N 37°39' E 009°20'10 9.8
2015-Jul-01 20:33N 37°39' E 009°32'10 9.8
2015-Jul-01 19:33N 37°39' E 009°45'12 9.7
2015-Jul-01 18:21N 37°39' E 009°60'8 9.6
2015-Jul-01 17:32N 37°39' E 010°09'1010.1
2015-Jul-01 16:33N 37°38' E 010°22'1010.1
2015-Jul-01 15:33N 37°36' E 010°34'1010.2
2015-Jul-01 14:33N 37°32' E 010°46'1010.0
2015-Jul-01 13:33N 37°29' E 010°58'10 9.9
2015-Jul-01 12:33N 37°27' E 011°11'1010.3
2015-Jul-01 11:33N 37°22' E 011°22'9 9.0
2015-Jul-01 10:33N 37°14' E 011°26'10 9.8
2015-Jul-01 09:34N 37°05' E 011°31'1010.0
2015-Jul-01 08:34N 36°56' E 011°37'1010.3
2015-Jul-01 07:33N 36°48' E 011°45'1010.6
2015-Jul-01 06:34N 36°40' E 011°54'1110.8
2015-Jul-01 05:34N 36°32' E 012°03'2110.5
2015-Jul-01 03:33N 36°15' E 012°18'1210.0
2015-Jul-01 02:23N 36°05' E 012°26'29 9.9
2015-Jun-30 23:25N 35°40' E 012°44'18 9.6
2015-Jun-30 21:33N 35°25' E 012°56'1110.2
2015-Jun-30 20:25N 35°15' E 013°04'1010.8
2015-Jun-30 19:32N 35°07' E 013°10'1110.8
2015-Jun-30 18:32N 34°58' E 013°18'1310.7
2015-Jun-30 17:19N 34°47' E 013°26'910.8
2015-Jun-30 16:31N 34°40' E 013°33'1010.7
2015-Jun-30 15:33N 34°32' E 013°40'6410.5
2015-Jun-30 09:26N 33°38' E 014°22'910.8
2015-Jun-30 08:33N 33°30' E 014°28'4210.4
2015-Jun-30 04:30N 32°54' E 014°54'1210.4
2015-Jun-30 03:23N 32°44' E 015°01'910.4
2015-Jun-30 02:33N 32°36' E 015°07'1010.2
2015-Jun-30 01:31N 32°27' E 015°13'6 1.3
2015-Jun-29 21:09N 32°22' E 015°13'0 0.0
2015-Jun-29 20:20N 32°22' E 015°13'0 0.0
2015-Jun-29 19:33N 32°22' E 015°13'0 0.0
2015-Jun-29 18:33N 32°22' E 015°13'0 0.0
2015-Jun-29 17:30N 32°22' E 015°13'0 0.0
2015-Jun-29 16:33N 32°22' E 015°13'0 0.0
2015-Jun-29 15:31N 32°22' E 015°13'0 0.0
2015-Jun-29 14:33N 32°22' E 015°13'52 4.9
2015-Jun-29 04:06N 33°09' E 014°48'9710.1
2015-Jun-28 18:33N 34°29' E 013°44'1010.2
2015-Jun-28 17:33N 34°38' E 013°37'1210.3
2015-Jun-28 16:21N 34°48' E 013°28'17810.6
2015-Jun-27 23:33N 37°13' E 011°21'6510.7
2015-Jun-27 17:32N 37°33' E 010°04'3311.0
2015-Jun-27 14:33N 37°26' E 009°24'1211.0
2015-Jun-27 13:30N 37°23' E 009°10'1010.9
2015-Jun-27 12:32N 37°20' E 008°57'1111.0
2015-Jun-27 11:33N 37°18' E 008°44'13010.7
2015-Jun-26 23:26N 37°24' E 006°00'7310.5
2015-Jun-26 16:30N 37°24' E 004°29'1510.6
2015-Jun-26 15:06N 37°25' E 004°10'810.5
2015-Jun-26 14:22N 37°25' E 004°00'1411.0
2015-Jun-26 13:05N 37°25' E 003°42'710.9
2015-Jun-26 12:24N 37°25' E 003°33'910.6
2015-Jun-26 11:33N 37°25' E 003°22'1010.5
2015-Jun-26 10:34N 37°25' E 003°09'1010.3
2015-Jun-26 09:33N 37°25' E 002°56'12410.3
2015-Jun-25 21:33N 37°26' E 000°20'1010.4
2015-Jun-25 20:33N 37°26' E 000°07'1510.1
2015-Jun-25 19:04N 37°27' W 000°12'5 9.8
2015-Jun-25 18:33N 37°27' W 000°19'1010.0
2015-Jun-25 17:33N 37°26' W 000°31'9 9.5
2015-Jun-25 16:34N 37°26' W 000°43'9 8.5
2015-Jun-25 15:32N 37°29' W 000°53'  
Track history (hours):
 
Tides and Currents Weather Stations Pressure Air Temp Water Temp Dewpoint Dewpoint Depression Visibility Wind Speed Wind Dir Waves Ship Positions

Barhom II

Last reported at 2015-Jul-04 06:25 UTC. Time now 2015-Jul-07 13:16 UTC.
Position N 37°33' W 001°07'.

Length 83 m; draft 4.3 m.

Type: Cargo ship. MMSI: 677043400.

Date/timePositionNaut miles runAvg speedWind from/ knotsBaromVisibWave heightAir tempDewpointWater temp
2015-Jul-04 06:25N 37°33' W 001°07'0 0.0
2015-Jul-04 04:27N 37°33' W 001°07'5 0.8
2015-Jul-03 21:24N 37°31' W 001°01'911.0
2015-Jul-03 20:33N 37°29' W 000°49'1010.0
2015-Jul-03 19:32N 37°29' W 000°36'1210.9
2015-Jul-03 18:28N 37°29' W 000°22'1010.8
2015-Jul-03 17:33N 37°29' W 000°09'1110.9
2015-Jul-03 16:33N 37°29' E 000°04'1110.7
2015-Jul-03 15:33N 37°29' E 000°18'1010.5
2015-Jul-03 14:33N 37°30' E 000°31'1010.4
2015-Jul-03 13:34N 37°31' E 000°44'1210.2
2015-Jul-03 12:25N 37°31' E 000°59'1010.5
2015-Jul-03 11:28N 37°31' E 001°11'1010.3
2015-Jul-03 10:26N 37°31' E 001°25'7110.2
2015-Jul-03 03:32N 37°33' E 002°54'40 9.9
2015-Jul-02 23:33N 37°33' E 003°44'12 9.5
2015-Jul-02 22:20N 37°33' E 003°58'7 9.6
2015-Jul-02 21:33N 37°32' E 004°07'10 9.6
2015-Jul-02 20:33N 37°32' E 004°19'2410.1
2015-Jul-02 18:10N 37°33' E 004°50'2010.1
2015-Jul-02 16:11N 37°34' E 005°15'710.3
2015-Jul-02 15:29N 37°34' E 005°24'1010.5
2015-Jul-02 14:33N 37°34' E 005°37'1210.8
2015-Jul-02 13:29N 37°34' E 005°51'1111.0
2015-Jul-02 12:32N 37°34' E 006°04'1111.1
2015-Jul-02 11:31N 37°34' E 006°19'5310.6
2015-Jul-02 06:33N 37°39' E 007°25'3410.3
2015-Jul-02 03:16N 37°38' E 008°07'810.3
2015-Jul-02 02:32N 37°39' E 008°17'1110.4
2015-Jul-02 01:29N 37°39' E 008°31'1010.1
2015-Jul-02 00:31N 37°39' E 008°43'10 9.8
2015-Jul-01 23:33N 37°39' E 008°55'10 9.8
2015-Jul-01 22:33N 37°39' E 009°07'10 9.9
2015-Jul-01 21:33N 37°39' E 009°20'10 9.8
2015-Jul-01 20:33N 37°39' E 009°32'10 9.8
2015-Jul-01 19:33N 37°39' E 009°45'12 9.7
2015-Jul-01 18:21N 37°39' E 009°60'8 9.6
2015-Jul-01 17:32N 37°39' E 010°09'1010.1
2015-Jul-01 16:33N 37°38' E 010°22'1010.1
2015-Jul-01 15:33N 37°36' E 010°34'1010.2
2015-Jul-01 14:33N 37°32' E 010°46'1010.0
2015-Jul-01 13:33N 37°29' E 010°58'10 9.9
2015-Jul-01 12:33N 37°27' E 011°11'1010.3
2015-Jul-01 11:33N 37°22' E 011°22'9 9.0
2015-Jul-01 10:33N 37°14' E 011°26'10 9.8
2015-Jul-01 09:34N 37°05' E 011°31'1010.0
2015-Jul-01 08:34N 36°56' E 011°37'1010.3
2015-Jul-01 07:33N 36°48' E 011°45'1010.6
2015-Jul-01 06:34N 36°40' E 011°54'1110.8
2015-Jul-01 05:34N 36°32' E 012°03'2110.5
2015-Jul-01 03:33N 36°15' E 012°18'1210.0
2015-Jul-01 02:23N 36°05' E 012°26'29 9.9
2015-Jun-30 23:25N 35°40' E 012°44'18 9.6
2015-Jun-30 21:33N 35°25' E 012°56'1110.2
2015-Jun-30 20:25N 35°15' E 013°04'1010.8
2015-Jun-30 19:32N 35°07' E 013°10'1110.8
2015-Jun-30 18:32N 34°58' E 013°18'1310.7
2015-Jun-30 17:19N 34°47' E 013°26'910.8
2015-Jun-30 16:31N 34°40' E 013°33'1010.7
2015-Jun-30 15:33N 34°32' E 013°40'6410.5
2015-Jun-30 09:26N 33°38' E 014°22'910.8
2015-Jun-30 08:33N 33°30' E 014°28'4210.4
2015-Jun-30 04:30N 32°54' E 014°54'1210.4
2015-Jun-30 03:23N 32°44' E 015°01'910.4
2015-Jun-30 02:33N 32°36' E 015°07'1010.2
2015-Jun-30 01:31N 32°27' E 015°13'6 1.3
2015-Jun-29 21:09N 32°22' E 015°13'0 0.0
2015-Jun-29 20:20N 32°22' E 015°13'0 0.0
2015-Jun-29 19:33N 32°22' E 015°13'0 0.0
2015-Jun-29 18:33N 32°22' E 015°13'0 0.0
2015-Jun-29 17:30N 32°22' E 015°13'0 0.0
2015-Jun-29 16:33N 32°22' E 015°13'0 0.0
2015-Jun-29 15:31N 32°22' E 015°13'0 0.0
2015-Jun-29 14:33N 32°22' E 015°13'52 4.9
2015-Jun-29 04:06N 33°09' E 014°48'9710.1
2015-Jun-28 18:33N 34°29' E 013°44'1010.2
2015-Jun-28 17:33N 34°38' E 013°37'1210.3
2015-Jun-28 16:21N 34°48' E 013°28'17810.6
2015-Jun-27 23:33N 37°13' E 011°21'6510.7
2015-Jun-27 17:32N 37°33' E 010°04'3311.0
2015-Jun-27 14:33N 37°26' E 009°24'1211.0
2015-Jun-27 13:30N 37°23' E 009°10'1010.9
2015-Jun-27 12:32N 37°20' E 008°57'1111.0
2015-Jun-27 11:33N 37°18' E 008°44'13010.7
2015-Jun-26 23:26N 37°24' E 006°00'7310.5
2015-Jun-26 16:30N 37°24' E 004°29'1510.6
2015-Jun-26 15:06N 37°25' E 004°10'810.5
2015-Jun-26 14:22N 37°25' E 004°00'1411.0
2015-Jun-26 13:05N 37°25' E 003°42'710.9
2015-Jun-26 12:24N 37°25' E 003°33'910.6
2015-Jun-26 11:33N 37°25' E 003°22'1010.5
2015-Jun-26 10:34N 37°25' E 003°09'1010.3
2015-Jun-26 09:33N 37°25' E 002°56'12410.3
2015-Jun-25 21:33N 37°26' E 000°20'1010.4
2015-Jun-25 20:33N 37°26' E 000°07'1510.1
2015-Jun-25 19:04N 37°27' W 000°12'5 9.8
2015-Jun-25 18:33N 37°27' W 000°19'1010.0
2015-Jun-25 17:33N 37°26' W 000°31'9 9.5
2015-Jun-25 16:34N 37°26' W 000°43'9 8.5
2015-Jun-25 15:32N 37°29' W 000°53'  

Dump ship's entire track history